< < Back
Terminal Aerodrome Forecast


Current Version              Previous Versions:   1  2  3  4  5  6  7  8  9  

Terminal Aerodrome Forecast

561
FTUS44 KHUN 270520
TAFHSV
TAF
KHSV 270520Z 2706/2806 VRB03KT P6SM SCT250
     FM270800 VRB03KT 4SM BR FEW010 SCT050
      TEMPO 2711/2713 00000KT 2SM BR SCT005
     FM271400 14005KT P6SM SCT035
     FM271800 11005KT P6SM VCTS BKN050CB
     FM280100 VRB03KT P6SM SCT050=



Latest METAR

284
SAUS80 KWBC 271500 CCA
MTRHSV
METAR KHSV 271453Z 09005KT 10SM BKN100 BKN250 27/23 A3012 RMK AO2 SLP190
T02720233 53011 $


USA.gov is the U.S. government's official web portal to all federal, state and local government web resources and services.